sensor_id;sensor_type;location;lat;lon;timestamp;temperature;humidity
32536;DHT22;18974;50.838;4.636;2023-02-14T00:01:55;3.90;99.90
32536;DHT22;18974;50.838;4.636;2023-02-14T00:04:21;3.80;99.90
32536;DHT22;18974;50.838;4.636;2023-02-14T00:06:46;3.80;99.90
32536;DHT22;18974;50.838;4.636;2023-02-14T00:09:14;3.80;99.90
32536;DHT22;18974;50.838;4.636;2023-02-14T00:11:40;3.80;99.90
32536;DHT22;18974;50.838;4.636;2023-02-14T00:14:06;3.90;99.90
32536;DHT22;18974;50.838;4.636;2023-02-14T00:16:51;3.90;99.90
32536;DHT22;18974;50.838;4.636;2023-02-14T00:19:18;3.90;99.90
32536;DHT22;18974;50.838;4.636;2023-02-14T00:21:45;3.80;99.90
32536;DHT22;18974;50.838;4.636;2023-02-14T00:24:16;3.80;99.90
32536;DHT22;18974;50.838;4.636;2023-02-14T00:26:42;3.80;99.90
32536;DHT22;18974;50.838;4.636;2023-02-14T00:29:14;3.80;99.90
32536;DHT22;18974;50.838;4.636;2023-02-14T00:31:40;3.80;99.90
32536;DHT22;18974;50.838;4.636;2023-02-14T00:34:08;3.70;99.90
32536;DHT22;18974;50.838;4.636;2023-02-14T00:36:34;3.70;99.90
32536;DHT22;18974;50.838;4.636;2023-02-14T00:39:08;3.60;99.90
32536;DHT22;18974;50.838;4.636;2023-02-14T00:41:34;3.70;99.90
32536;DHT22;18974;50.838;4.636;2023-02-14T00:44:00;3.60;99.90
32536;DHT22;18974;50.838;4.636;2023-02-14T00:46:26;3.70;99.90
32536;DHT22;18974;50.838;4.636;2023-02-14T00:48:52;3.60;99.90
32536;DHT22;18974;50.838;4.636;2023-02-14T00:51:19;3.60;99.90
32536;DHT22;18974;50.838;4.636;2023-02-14T00:53:46;3.60;99.90
32536;DHT22;18974;50.838;4.636;2023-02-14T00:56:13;3.50;99.90
32536;DHT22;18974;50.838;4.636;2023-02-14T00:58:39;3.50;99.90
32536;DHT22;18974;50.838;4.636;2023-02-14T01:01:05;3.60;99.90
32536;DHT22;18974;50.838;4.636;2023-02-14T01:03:31;3.60;99.90
32536;DHT22;18974;50.838;4.636;2023-02-14T01:05:57;3.40;99.90
32536;DHT22;18974;50.838;4.636;2023-02-14T01:08:23;3.40;99.90
32536;DHT22;18974;50.838;4.636;2023-02-14T01:10:49;3.30;99.90
32536;DHT22;18974;50.838;4.636;2023-02-14T01:13:15;3.30;99.90
32536;DHT22;18974;50.838;4.636;2023-02-14T01:15:43;3.30;99.90
32536;DHT22;18974;50.838;4.636;2023-02-14T01:18:09;3.40;99.90
32536;DHT22;18974;50.838;4.636;2023-02-14T01:20:35;3.20;99.90
32536;DHT22;18974;50.838;4.636;2023-02-14T01:23:01;3.20;99.90
32536;DHT22;18974;50.838;4.636;2023-02-14T01:25:27;3.20;99.90
32536;DHT22;18974;50.838;4.636;2023-02-14T01:27:53;3.20;99.90
32536;DHT22;18974;50.838;4.636;2023-02-14T01:30:19;3.00;99.90
32536;DHT22;18974;50.838;4.636;2023-02-14T01:32:44;3.00;99.90
32536;DHT22;18974;50.838;4.636;2023-02-14T01:35:11;3.00;99.90
32536;DHT22;18974;50.838;4.636;2023-02-14T01:37:36;3.00;99.90
32536;DHT22;18974;50.838;4.636;2023-02-14T01:40:04;3.00;99.90
32536;DHT22;18974;50.838;4.636;2023-02-14T01:42:32;2.90;99.90
32536;DHT22;18974;50.838;4.636;2023-02-14T01:45:07;2.90;99.90
32536;DHT22;18974;50.838;4.636;2023-02-14T01:47:37;2.80;99.90
32536;DHT22;18974;50.838;4.636;2023-02-14T01:50:17;2.70;99.90
32536;DHT22;18974;50.838;4.636;2023-02-14T01:52:50;2.70;99.90
32536;DHT22;18974;50.838;4.636;2023-02-14T01:55:29;2.70;99.90
32536;DHT22;18974;50.838;4.636;2023-02-14T01:58:03;2.70;99.90
32536;DHT22;18974;50.838;4.636;2023-02-14T02:00:29;2.60;99.90
32536;DHT22;18974;50.838;4.636;2023-02-14T02:03:15;2.60;99.90
32536;DHT22;18974;50.838;4.636;2023-02-14T02:05:46;2.60;99.90
32536;DHT22;18974;50.838;4.636;2023-02-14T02:08:13;2.60;99.90
32536;DHT22;18974;50.838;4.636;2023-02-14T02:10:38;2.60;99.90
32536;DHT22;18974;50.838;4.636;2023-02-14T02:13:06;2.60;99.90
32536;DHT22;18974;50.838;4.636;2023-02-14T02:15:45;2.60;99.90
32536;DHT22;18974;50.838;4.636;2023-02-14T02:45:47;2.50;99.90
32536;DHT22;18974;50.838;4.636;2023-02-14T02:48:49;2.40;99.90
32536;DHT22;18974;50.838;4.636;2023-02-14T02:51:27;2.40;99.90
32536;DHT22;18974;50.838;4.636;2023-02-14T02:54:43;2.40;99.90
32536;DHT22;18974;50.838;4.636;2023-02-14T02:57:20;2.40;99.90
32536;DHT22;18974;50.838;4.636;2023-02-14T02:59:48;2.40;99.90
32536;DHT22;18974;50.838;4.636;2023-02-14T03:02:31;2.40;99.90
32536;DHT22;18974;50.838;4.636;2023-02-14T03:05:01;2.30;99.90
32536;DHT22;18974;50.838;4.636;2023-02-14T03:07:33;2.30;99.90
32536;DHT22;18974;50.838;4.636;2023-02-14T03:20:48;2.30;99.90
32536;DHT22;18974;50.838;4.636;2023-02-14T03:23:28;2.20;99.90
32536;DHT22;18974;50.838;4.636;2023-02-14T03:28:46;2.20;99.90
32536;DHT22;18974;50.838;4.636;2023-02-14T03:39:20;2.10;99.90
32536;DHT22;18974;50.838;4.636;2023-02-14T03:42:06;2.10;99.90
32536;DHT22;18974;50.838;4.636;2023-02-14T03:44:34;2.10;99.90
32536;DHT22;18974;50.838;4.636;2023-02-14T03:47:08;2.10;99.90
32536;DHT22;18974;50.838;4.636;2023-02-14T03:49:39;2.10;99.90
32536;DHT22;18974;50.838;4.636;2023-02-14T03:52:07;2.10;99.90
32536;DHT22;18974;50.838;4.636;2023-02-14T03:54:34;2.00;99.90
32536;DHT22;18974;50.838;4.636;2023-02-14T03:57:11;1.90;99.90
32536;DHT22;18974;50.838;4.636;2023-02-14T03:59:38;1.90;99.90
32536;DHT22;18974;50.838;4.636;2023-02-14T04:02:14;1.90;99.90
32536;DHT22;18974;50.838;4.636;2023-02-14T04:04:47;2.00;99.90
32536;DHT22;18974;50.838;4.636;2023-02-14T04:07:16;2.00;99.90
32536;DHT22;18974;50.838;4.636;2023-02-14T04:09:42;1.90;99.90
32536;DHT22;18974;50.838;4.636;2023-02-14T04:12:08;2.00;99.90
32536;DHT22;18974;50.838;4.636;2023-02-14T04:14:35;2.10;99.90
32536;DHT22;18974;50.838;4.636;2023-02-14T04:17:01;2.20;99.90
32536;DHT22;18974;50.838;4.636;2023-02-14T04:19:45;2.20;99.90
32536;DHT22;18974;50.838;4.636;2023-02-14T04:22:11;2.20;99.90
32536;DHT22;18974;50.838;4.636;2023-02-14T04:24:37;2.10;99.90
32536;DHT22;18974;50.838;4.636;2023-02-14T04:27:03;2.00;99.90
32536;DHT22;18974;50.838;4.636;2023-02-14T04:32:08;1.80;99.90
32536;DHT22;18974;50.838;4.636;2023-02-14T04:34:34;1.90;99.90
32536;DHT22;18974;50.838;4.636;2023-02-14T04:37:00;1.90;99.90
32536;DHT22;18974;50.838;4.636;2023-02-14T04:39:27;1.80;99.90
32536;DHT22;18974;50.838;4.636;2023-02-14T04:41:52;1.90;99.90
32536;DHT22;18974;50.838;4.636;2023-02-14T04:44:18;2.10;99.90
32536;DHT22;18974;50.838;4.636;2023-02-14T04:46:44;2.10;99.90
32536;DHT22;18974;50.838;4.636;2023-02-14T04:49:10;2.00;99.90
32536;DHT22;18974;50.838;4.636;2023-02-14T04:51:36;2.00;99.90
32536;DHT22;18974;50.838;4.636;2023-02-14T04:54:01;1.90;99.90
32536;DHT22;18974;50.838;4.636;2023-02-14T04:56:27;1.80;99.90
32536;DHT22;18974;50.838;4.636;2023-02-14T04:58:53;1.80;99.90
32536;DHT22;18974;50.838;4.636;2023-02-14T05:01:19;1.90;99.90
32536;DHT22;18974;50.838;4.636;2023-02-14T05:03:45;1.90;99.90
32536;DHT22;18974;50.838;4.636;2023-02-14T05:06:10;1.80;99.90
32536;DHT22;18974;50.838;4.636;2023-02-14T05:08:36;1.70;99.90
32536;DHT22;18974;50.838;4.636;2023-02-14T05:11:02;1.70;99.90
32536;DHT22;18974;50.838;4.636;2023-02-14T05:13:27;1.80;99.90
32536;DHT22;18974;50.838;4.636;2023-02-14T05:15:54;1.80;99.90
32536;DHT22;18974;50.838;4.636;2023-02-14T05:18:20;1.70;99.90
32536;DHT22;18974;50.838;4.636;2023-02-14T05:20:49;1.70;99.90
32536;DHT22;18974;50.838;4.636;2023-02-14T05:23:15;1.70;99.90
32536;DHT22;18974;50.838;4.636;2023-02-14T05:25:41;1.70;99.90
32536;DHT22;18974;50.838;4.636;2023-02-14T05:28:07;1.60;99.90
32536;DHT22;18974;50.838;4.636;2023-02-14T05:30:33;1.60;99.90
32536;DHT22;18974;50.838;4.636;2023-02-14T05:32:59;1.60;99.90
32536;DHT22;18974;50.838;4.636;2023-02-14T05:35:25;1.50;99.90
32536;DHT22;18974;50.838;4.636;2023-02-14T05:37:51;1.70;99.90
32536;DHT22;18974;50.838;4.636;2023-02-14T05:40:17;1.80;99.90
32536;DHT22;18974;50.838;4.636;2023-02-14T05:42:43;1.70;99.90
32536;DHT22;18974;50.838;4.636;2023-02-14T05:45:09;1.70;99.90
32536;DHT22;18974;50.838;4.636;2023-02-14T05:47:35;1.70;99.90
32536;DHT22;18974;50.838;4.636;2023-02-14T05:50:00;1.60;99.90
32536;DHT22;18974;50.838;4.636;2023-02-14T05:52:26;1.60;99.90
32536;DHT22;18974;50.838;4.636;2023-02-14T05:54:52;1.60;99.90
32536;DHT22;18974;50.838;4.636;2023-02-14T05:57:18;1.50;99.90
32536;DHT22;18974;50.838;4.636;2023-02-14T05:59:44;1.50;99.90
32536;DHT22;18974;50.838;4.636;2023-02-14T06:02:09;1.50;99.90
32536;DHT22;18974;50.838;4.636;2023-02-14T06:04:35;1.60;99.90
32536;DHT22;18974;50.838;4.636;2023-02-14T06:07:01;1.50;99.90
32536;DHT22;18974;50.838;4.636;2023-02-14T06:09:27;1.50;99.90
32536;DHT22;18974;50.838;4.636;2023-02-14T06:11:52;1.50;99.90
32536;DHT22;18974;50.838;4.636;2023-02-14T06:14:18;1.50;99.90
32536;DHT22;18974;50.838;4.636;2023-02-14T06:16:44;1.60;99.90
32536;DHT22;18974;50.838;4.636;2023-02-14T06:19:09;1.50;99.90
32536;DHT22;18974;50.838;4.636;2023-02-14T06:21:35;1.50;99.90
32536;DHT22;18974;50.838;4.636;2023-02-14T06:24:01;1.40;99.90
32536;DHT22;18974;50.838;4.636;2023-02-14T06:26:26;1.30;99.90
32536;DHT22;18974;50.838;4.636;2023-02-14T06:28:56;1.40;99.90
32536;DHT22;18974;50.838;4.636;2023-02-14T06:31:22;1.30;99.90
32536;DHT22;18974;50.838;4.636;2023-02-14T06:33:48;1.40;99.90
32536;DHT22;18974;50.838;4.636;2023-02-14T06:36:14;1.40;99.90
32536;DHT22;18974;50.838;4.636;2023-02-14T06:38:40;1.30;99.90
32536;DHT22;18974;50.838;4.636;2023-02-14T06:41:07;1.30;99.90
32536;DHT22;18974;50.838;4.636;2023-02-14T06:43:34;1.30;99.90
32536;DHT22;18974;50.838;4.636;2023-02-14T06:46:00;1.40;99.90
32536;DHT22;18974;50.838;4.636;2023-02-14T06:48:25;1.40;99.90
32536;DHT22;18974;50.838;4.636;2023-02-14T06:50:51;1.40;99.90
32536;DHT22;18974;50.838;4.636;2023-02-14T06:53:18;1.40;99.90
32536;DHT22;18974;50.838;4.636;2023-02-14T06:55:44;1.40;99.90
32536;DHT22;18974;50.838;4.636;2023-02-14T06:58:09;1.50;99.90
32536;DHT22;18974;50.838;4.636;2023-02-14T07:00:35;1.40;99.90
32536;DHT22;18974;50.838;4.636;2023-02-14T07:03:01;1.40;99.90
32536;DHT22;18974;50.838;4.636;2023-02-14T07:05:26;1.40;99.90
32536;DHT22;18974;50.838;4.636;2023-02-14T07:07:52;1.50;99.90
32536;DHT22;18974;50.838;4.636;2023-02-14T07:10:18;1.50;99.90
32536;DHT22;18974;50.838;4.636;2023-02-14T07:12:43;1.50;99.90
32536;DHT22;18974;50.838;4.636;2023-02-14T07:15:11;1.40;99.90
32536;DHT22;18974;50.838;4.636;2023-02-14T07:17:37;1.50;99.90
32536;DHT22;18974;50.838;4.636;2023-02-14T07:20:03;1.30;99.90
32536;DHT22;18974;50.838;4.636;2023-02-14T07:22:29;1.30;99.90
32536;DHT22;18974;50.838;4.636;2023-02-14T07:24:55;1.40;99.90
32536;DHT22;18974;50.838;4.636;2023-02-14T07:27:20;1.30;99.90
32536;DHT22;18974;50.838;4.636;2023-02-14T07:29:46;1.30;99.90
32536;DHT22;18974;50.838;4.636;2023-02-14T07:32:11;1.40;99.90
32536;DHT22;18974;50.838;4.636;2023-02-14T07:34:37;1.40;99.90
32536;DHT22;18974;50.838;4.636;2023-02-14T07:37:02;1.40;99.90
32536;DHT22;18974;50.838;4.636;2023-02-14T07:39:28;1.40;99.90
32536;DHT22;18974;50.838;4.636;2023-02-14T07:41:54;1.40;99.90
32536;DHT22;18974;50.838;4.636;2023-02-14T07:44:19;1.50;99.90
32536;DHT22;18974;50.838;4.636;2023-02-14T07:46:45;1.70;99.90
32536;DHT22;18974;50.838;4.636;2023-02-14T07:49:11;1.80;99.90
32536;DHT22;18974;50.838;4.636;2023-02-14T07:51:36;1.80;99.90
32536;DHT22;18974;50.838;4.636;2023-02-14T07:54:02;1.60;99.90
32536;DHT22;18974;50.838;4.636;2023-02-14T07:56:28;1.60;99.90
32536;DHT22;18974;50.838;4.636;2023-02-14T07:58:53;1.70;99.90
32536;DHT22;18974;50.838;4.636;2023-02-14T08:01:19;1.90;99.90
32536;DHT22;18974;50.838;4.636;2023-02-14T08:03:45;1.90;99.90
32536;DHT22;18974;50.838;4.636;2023-02-14T08:06:15;1.80;99.90
32536;DHT22;18974;50.838;4.636;2023-02-14T08:08:40;1.80;99.90
32536;DHT22;18974;50.838;4.636;2023-02-14T08:11:06;2.00;99.90
32536;DHT22;18974;50.838;4.636;2023-02-14T08:13:32;2.20;99.90
32536;DHT22;18974;50.838;4.636;2023-02-14T08:15:57;2.10;99.90
32536;DHT22;18974;50.838;4.636;2023-02-14T08:18:33;2.10;99.90
32536;DHT22;18974;50.838;4.636;2023-02-14T08:20:59;2.20;99.90
32536;DHT22;18974;50.838;4.636;2023-02-14T08:23:25;2.20;99.90
32536;DHT22;18974;50.838;4.636;2023-02-14T08:25:51;2.30;99.90
32536;DHT22;18974;50.838;4.636;2023-02-14T08:28:17;2.50;99.90
32536;DHT22;18974;50.838;4.636;2023-02-14T08:30:44;2.70;99.90
32536;DHT22;18974;50.838;4.636;2023-02-14T08:33:10;2.80;99.90
32536;DHT22;18974;50.838;4.636;2023-02-14T08:35:37;2.70;99.90
32536;DHT22;18974;50.838;4.636;2023-02-14T08:38:03;2.80;99.90
32536;DHT22;18974;50.838;4.636;2023-02-14T08:40:29;3.00;99.90
32536;DHT22;18974;50.838;4.636;2023-02-14T08:42:55;3.10;99.90
32536;DHT22;18974;50.838;4.636;2023-02-14T08:45:21;3.30;99.90
32536;DHT22;18974;50.838;4.636;2023-02-14T08:47:47;3.30;99.90
32536;DHT22;18974;50.838;4.636;2023-02-14T08:50:15;3.50;99.90
32536;DHT22;18974;50.838;4.636;2023-02-14T08:52:42;3.50;99.90
32536;DHT22;18974;50.838;4.636;2023-02-14T08:55:09;3.60;99.90
32536;DHT22;18974;50.838;4.636;2023-02-14T08:57:34;3.70;99.90
32536;DHT22;18974;50.838;4.636;2023-02-14T09:00:00;3.80;99.90
32536;DHT22;18974;50.838;4.636;2023-02-14T09:02:26;3.90;99.90
32536;DHT22;18974;50.838;4.636;2023-02-14T09:04:52;4.20;99.90
32536;DHT22;18974;50.838;4.636;2023-02-14T09:07:17;4.20;99.90
32536;DHT22;18974;50.838;4.636;2023-02-14T09:09:44;4.20;99.90
32536;DHT22;18974;50.838;4.636;2023-02-14T09:12:10;4.40;99.90
32536;DHT22;18974;50.838;4.636;2023-02-14T09:14:41;4.40;99.90
32536;DHT22;18974;50.838;4.636;2023-02-14T09:17:13;4.60;99.90
32536;DHT22;18974;50.838;4.636;2023-02-14T09:19:39;4.70;99.90
32536;DHT22;18974;50.838;4.636;2023-02-14T09:22:07;4.80;99.90
32536;DHT22;18974;50.838;4.636;2023-02-14T09:24:34;4.90;99.90
32536;DHT22;18974;50.838;4.636;2023-02-14T09:27:01;5.10;99.90
32536;DHT22;18974;50.838;4.636;2023-02-14T09:29:27;5.20;99.90
32536;DHT22;18974;50.838;4.636;2023-02-14T09:31:54;5.30;99.90
32536;DHT22;18974;50.838;4.636;2023-02-14T09:34:20;5.60;99.90
32536;DHT22;18974;50.838;4.636;2023-02-14T09:36:46;5.70;99.90
32536;DHT22;18974;50.838;4.636;2023-02-14T09:39:30;5.80;99.90
32536;DHT22;18974;50.838;4.636;2023-02-14T09:42:23;6.10;99.90
32536;DHT22;18974;50.838;4.636;2023-02-14T09:44:56;6.10;99.90
32536;DHT22;18974;50.838;4.636;2023-02-14T09:49:55;6.50;99.90
32536;DHT22;18974;50.838;4.636;2023-02-14T09:52:25;6.60;99.90
32536;DHT22;18974;50.838;4.636;2023-02-14T09:54:56;6.70;99.90
32536;DHT22;18974;50.838;4.636;2023-02-14T10:00:23;7.10;99.90
32536;DHT22;18974;50.838;4.636;2023-02-14T10:03:20;7.20;99.90
32536;DHT22;18974;50.838;4.636;2023-02-14T10:05:58;7.40;99.90
32536;DHT22;18974;50.838;4.636;2023-02-14T10:11:11;7.70;99.90
32536;DHT22;18974;50.838;4.636;2023-02-14T10:21:23;8.40;99.90
32536;DHT22;18974;50.838;4.636;2023-02-14T10:23:55;8.50;99.90
32536;DHT22;18974;50.838;4.636;2023-02-14T10:26:36;8.70;99.90
32536;DHT22;18974;50.838;4.636;2023-02-14T10:29:07;8.80;99.90
32536;DHT22;18974;50.838;4.636;2023-02-14T10:31:50;9.00;99.90
32536;DHT22;18974;50.838;4.636;2023-02-14T10:34:40;9.00;99.90
32536;DHT22;18974;50.838;4.636;2023-02-14T10:37:47;9.30;99.90
32536;DHT22;18974;50.838;4.636;2023-02-14T10:56:40;10.10;99.90
32536;DHT22;18974;50.838;4.636;2023-02-14T10:59:33;10.20;99.90
32536;DHT22;18974;50.838;4.636;2023-02-14T11:02:00;10.30;99.90
32536;DHT22;18974;50.838;4.636;2023-02-14T11:04:27;10.50;99.90
32536;DHT22;18974;50.838;4.636;2023-02-14T11:06:54;10.60;99.90
32536;DHT22;18974;50.838;4.636;2023-02-14T11:09:20;10.70;99.90
32536;DHT22;18974;50.838;4.636;2023-02-14T11:11:57;10.70;99.90
32536;DHT22;18974;50.838;4.636;2023-02-14T11:14:30;10.90;99.90
32536;DHT22;18974;50.838;4.636;2023-02-14T11:16:57;10.90;99.90
32536;DHT22;18974;50.838;4.636;2023-02-14T11:19:28;11.00;99.90
32536;DHT22;18974;50.838;4.636;2023-02-14T11:21:57;11.10;99.90
32536;DHT22;18974;50.838;4.636;2023-02-14T11:24:34;11.10;99.90
32536;DHT22;18974;50.838;4.636;2023-02-14T11:32:12;11.30;99.90
32536;DHT22;18974;50.838;4.636;2023-02-14T11:34:43;11.40;99.90
32536;DHT22;18974;50.838;4.636;2023-02-14T11:39:48;11.60;99.90
32536;DHT22;18974;50.838;4.636;2023-02-14T11:45:03;11.70;99.90
32536;DHT22;18974;50.838;4.636;2023-02-14T11:47:32;11.80;99.90
32536;DHT22;18974;50.838;4.636;2023-02-14T11:50:01;12.00;99.90
32536;DHT22;18974;50.838;4.636;2023-02-14T11:52:28;12.00;99.90
32536;DHT22;18974;50.838;4.636;2023-02-14T11:54:56;12.00;99.90
32536;DHT22;18974;50.838;4.636;2023-02-14T11:57:32;12.20;99.90
32536;DHT22;18974;50.838;4.636;2023-02-14T12:00:00;12.20;99.90
32536;DHT22;18974;50.838;4.636;2023-02-14T12:02:35;12.30;99.90
32536;DHT22;18974;50.838;4.636;2023-02-14T12:05:05;12.40;99.90
32536;DHT22;18974;50.838;4.636;2023-02-14T12:07:34;12.40;99.90
32536;DHT22;18974;50.838;4.636;2023-02-14T12:12:53;12.50;99.90
32536;DHT22;18974;50.838;4.636;2023-02-14T12:15:26;12.50;99.90
32536;DHT22;18974;50.838;4.636;2023-02-14T12:23:58;12.80;99.90
32536;DHT22;18974;50.838;4.636;2023-02-14T12:26:36;12.90;99.90
32536;DHT22;18974;50.838;4.636;2023-02-14T12:31:28;13.00;99.90
32536;DHT22;18974;50.838;4.636;2023-02-14T12:33:55;13.20;99.90
32536;DHT22;18974;50.838;4.636;2023-02-14T12:44:53;13.40;99.90
32536;DHT22;18974;50.838;4.636;2023-02-14T12:50:37;13.40;99.90
32536;DHT22;18974;50.838;4.636;2023-02-14T12:56:27;13.40;99.90
32536;DHT22;18974;50.838;4.636;2023-02-14T13:00:17;13.60;99.90
32536;DHT22;18974;50.838;4.636;2023-02-14T13:05:19;13.80;99.90
32536;DHT22;18974;50.838;4.636;2023-02-14T13:13:39;14.10;99.90
32536;DHT22;18974;50.838;4.636;2023-02-14T13:18:59;14.30;99.90
32536;DHT22;18974;50.838;4.636;2023-02-14T13:21:30;14.50;99.90
32536;DHT22;18974;50.838;4.636;2023-02-14T13:24:17;14.60;99.90
32536;DHT22;18974;50.838;4.636;2023-02-14T13:26:47;14.70;99.90
32536;DHT22;18974;50.838;4.636;2023-02-14T13:29:17;14.70;99.90
32536;DHT22;18974;50.838;4.636;2023-02-14T13:31:45;14.80;99.90
32536;DHT22;18974;50.838;4.636;2023-02-14T13:34:29;14.80;99.90
32536;DHT22;18974;50.838;4.636;2023-02-14T13:36:57;14.80;99.90
32536;DHT22;18974;50.838;4.636;2023-02-14T13:39:33;15.00;99.90
32536;DHT22;18974;50.838;4.636;2023-02-14T13:41:59;15.00;99.90
32536;DHT22;18974;50.838;4.636;2023-02-14T13:47:06;15.20;99.90
32536;DHT22;18974;50.838;4.636;2023-02-14T13:49:46;15.10;99.90
32536;DHT22;18974;50.838;4.636;2023-02-14T13:52:13;15.20;99.90
32536;DHT22;18974;50.838;4.636;2023-02-14T13:55:06;15.40;99.90
32536;DHT22;18974;50.838;4.636;2023-02-14T13:57:35;15.50;99.90
32536;DHT22;18974;50.838;4.636;2023-02-14T14:02:53;15.70;99.90
32536;DHT22;18974;50.838;4.636;2023-02-14T14:08:37;15.50;99.90
32536;DHT22;18974;50.838;4.636;2023-02-14T14:11:08;15.40;99.90
32536;DHT22;18974;50.838;4.636;2023-02-14T14:18:49;15.50;99.90
32536;DHT22;18974;50.838;4.636;2023-02-14T14:24:10;15.40;99.90
32536;DHT22;18974;50.838;4.636;2023-02-14T14:26:42;15.30;99.90
32536;DHT22;18974;50.838;4.636;2023-02-14T14:29:24;15.30;99.90
32536;DHT22;18974;50.838;4.636;2023-02-14T14:31:51;15.30;99.90
32536;DHT22;18974;50.838;4.636;2023-02-14T14:34:25;15.30;99.90
32536;DHT22;18974;50.838;4.636;2023-02-14T14:37:14;15.20;99.90
32536;DHT22;18974;50.838;4.636;2023-02-14T14:39:40;15.10;99.90
32536;DHT22;18974;50.838;4.636;2023-02-14T14:42:16;14.90;99.90
32536;DHT22;18974;50.838;4.636;2023-02-14T14:44:56;14.90;99.90
32536;DHT22;18974;50.838;4.636;2023-02-14T14:47:26;15.00;99.90
32536;DHT22;18974;50.838;4.636;2023-02-14T14:49:56;15.00;99.90
32536;DHT22;18974;50.838;4.636;2023-02-14T14:52:29;15.00;99.90
32536;DHT22;18974;50.838;4.636;2023-02-14T14:54:55;15.00;99.90
32536;DHT22;18974;50.838;4.636;2023-02-14T14:57:22;14.90;99.90
32536;DHT22;18974;50.838;4.636;2023-02-14T14:59:48;14.90;99.90
32536;DHT22;18974;50.838;4.636;2023-02-14T15:02:24;14.90;99.90
32536;DHT22;18974;50.838;4.636;2023-02-14T15:04:51;15.00;99.90
32536;DHT22;18974;50.838;4.636;2023-02-14T15:07:26;14.90;99.90
32536;DHT22;18974;50.838;4.636;2023-02-14T15:09:55;14.90;99.90
32536;DHT22;18974;50.838;4.636;2023-02-14T15:12:22;14.90;99.90
32536;DHT22;18974;50.838;4.636;2023-02-14T15:15:10;14.90;99.90
32536;DHT22;18974;50.838;4.636;2023-02-14T15:17:37;14.70;99.90
32536;DHT22;18974;50.838;4.636;2023-02-14T15:20:08;14.60;99.90
32536;DHT22;18974;50.838;4.636;2023-02-14T15:22:45;14.50;99.90
32536;DHT22;18974;50.838;4.636;2023-02-14T15:25:19;14.40;99.90
32536;DHT22;18974;50.838;4.636;2023-02-14T15:27:45;14.40;99.90
32536;DHT22;18974;50.838;4.636;2023-02-14T15:30:24;14.40;99.90
32536;DHT22;18974;50.838;4.636;2023-02-14T15:32:51;14.40;99.90
32536;DHT22;18974;50.838;4.636;2023-02-14T15:35:23;14.40;99.90
32536;DHT22;18974;50.838;4.636;2023-02-14T15:37:50;14.30;99.90
32536;DHT22;18974;50.838;4.636;2023-02-14T15:40:27;14.10;99.90
32536;DHT22;18974;50.838;4.636;2023-02-14T15:42:54;14.00;99.90
32536;DHT22;18974;50.838;4.636;2023-02-14T15:48:04;14.00;99.90
32536;DHT22;18974;50.838;4.636;2023-02-14T15:50:34;13.80;99.90
32536;DHT22;18974;50.838;4.636;2023-02-14T15:55:45;13.60;99.90
32536;DHT22;18974;50.838;4.636;2023-02-14T15:58:20;13.50;99.90
32536;DHT22;18974;50.838;4.636;2023-02-14T16:00:48;13.30;99.90
32536;DHT22;18974;50.838;4.636;2023-02-14T16:03:25;13.30;99.90
32536;DHT22;18974;50.838;4.636;2023-02-14T16:05:51;13.20;99.90
32536;DHT22;18974;50.838;4.636;2023-02-14T16:08:38;13.10;99.90
32536;DHT22;18974;50.838;4.636;2023-02-14T16:11:12;13.00;99.90
32536;DHT22;18974;50.838;4.636;2023-02-14T16:13:44;12.90;99.90
32536;DHT22;18974;50.838;4.636;2023-02-14T16:16:11;12.80;99.90
32536;DHT22;18974;50.838;4.636;2023-02-14T16:18:39;12.70;99.90
32536;DHT22;18974;50.838;4.636;2023-02-14T16:21:31;12.70;99.90
32536;DHT22;18974;50.838;4.636;2023-02-14T16:26:40;12.50;99.90
32536;DHT22;18974;50.838;4.636;2023-02-14T16:29:11;12.40;99.90
32536;DHT22;18974;50.838;4.636;2023-02-14T16:31:52;12.40;99.90
32536;DHT22;18974;50.838;4.636;2023-02-14T16:34:19;12.40;99.90
32536;DHT22;18974;50.838;4.636;2023-02-14T16:36:45;12.30;99.90
32536;DHT22;18974;50.838;4.636;2023-02-14T16:39:16;12.20;99.90
32536;DHT22;18974;50.838;4.636;2023-02-14T16:41:46;12.10;99.90
32536;DHT22;18974;50.838;4.636;2023-02-14T16:44:14;12.00;99.90
32536;DHT22;18974;50.838;4.636;2023-02-14T16:46:40;12.00;99.90
32536;DHT22;18974;50.838;4.636;2023-02-14T16:49:05;12.00;99.90
32536;DHT22;18974;50.838;4.636;2023-02-14T16:51:33;11.90;99.90
32536;DHT22;18974;50.838;4.636;2023-02-14T16:54:03;11.90;99.90
32536;DHT22;18974;50.838;4.636;2023-02-14T16:56:42;11.80;99.90
32536;DHT22;18974;50.838;4.636;2023-02-14T16:59:09;11.80;99.90
32536;DHT22;18974;50.838;4.636;2023-02-14T17:01:35;11.70;99.90
32536;DHT22;18974;50.838;4.636;2023-02-14T17:04:01;11.60;99.90
32536;DHT22;18974;50.838;4.636;2023-02-14T17:06:28;11.50;99.90
32536;DHT22;18974;50.838;4.636;2023-02-14T17:08:55;11.50;99.90
32536;DHT22;18974;50.838;4.636;2023-02-14T17:11:23;11.40;99.90
32536;DHT22;18974;50.838;4.636;2023-02-14T17:13:50;11.40;99.90
32536;DHT22;18974;50.838;4.636;2023-02-14T17:16:16;11.30;99.90
32536;DHT22;18974;50.838;4.636;2023-02-14T17:18:47;11.20;99.90
32536;DHT22;18974;50.838;4.636;2023-02-14T17:21:16;11.10;99.90
32536;DHT22;18974;50.838;4.636;2023-02-14T17:23:44;11.00;99.90
32536;DHT22;18974;50.838;4.636;2023-02-14T17:26:09;10.90;99.90
32536;DHT22;18974;50.838;4.636;2023-02-14T17:28:35;10.80;99.90
32536;DHT22;18974;50.838;4.636;2023-02-14T17:31:01;10.90;99.90
32536;DHT22;18974;50.838;4.636;2023-02-14T17:33:28;10.70;99.90
32536;DHT22;18974;50.838;4.636;2023-02-14T17:36:05;10.70;99.90
32536;DHT22;18974;50.838;4.636;2023-02-14T17:38:32;10.60;99.90
32536;DHT22;18974;50.838;4.636;2023-02-14T17:40:57;10.60;99.90
32536;DHT22;18974;50.838;4.636;2023-02-14T17:43:23;10.60;99.90
32536;DHT22;18974;50.838;4.636;2023-02-14T17:45:49;10.60;99.90
32536;DHT22;18974;50.838;4.636;2023-02-14T17:48:14;10.50;99.90
32536;DHT22;18974;50.838;4.636;2023-02-14T17:50:40;10.40;99.90
32536;DHT22;18974;50.838;4.636;2023-02-14T17:53:06;10.40;99.90
32536;DHT22;18974;50.838;4.636;2023-02-14T17:55:34;10.30;99.90
32536;DHT22;18974;50.838;4.636;2023-02-14T17:57:59;10.20;99.90
32536;DHT22;18974;50.838;4.636;2023-02-14T18:00:25;10.20;99.90
32536;DHT22;18974;50.838;4.636;2023-02-14T18:02:51;10.20;99.90
32536;DHT22;18974;50.838;4.636;2023-02-14T18:05:16;10.10;99.90
32536;DHT22;18974;50.838;4.636;2023-02-14T18:07:42;10.10;99.90
32536;DHT22;18974;50.838;4.636;2023-02-14T18:10:08;10.00;99.90
32536;DHT22;18974;50.838;4.636;2023-02-14T18:12:34;9.90;99.90
32536;DHT22;18974;50.838;4.636;2023-02-14T18:15:00;9.90;99.90
32536;DHT22;18974;50.838;4.636;2023-02-14T18:17:25;9.80;99.90
32536;DHT22;18974;50.838;4.636;2023-02-14T18:19:51;9.80;99.90
32536;DHT22;18974;50.838;4.636;2023-02-14T18:22:16;9.70;99.90
32536;DHT22;18974;50.838;4.636;2023-02-14T18:24:42;9.70;99.90
32536;DHT22;18974;50.838;4.636;2023-02-14T18:27:08;9.60;99.90
32536;DHT22;18974;50.838;4.636;2023-02-14T18:29:34;9.50;99.90
32536;DHT22;18974;50.838;4.636;2023-02-14T18:32:00;9.50;99.90